sensor_id;sensor_type;location;lat;lon;timestamp;P1;durP1;ratioP1;P2;durP2;ratioP2
14965;SDS011;7577;45.226;5.798;2023-06-26T00:00:45;5.83;;;5.33;;
14965;SDS011;7577;45.226;5.798;2023-06-26T00:03:14;6.07;;;5.43;;
14965;SDS011;7577;45.226;5.798;2023-06-26T00:05:42;5.70;;;5.20;;
14965;SDS011;7577;45.226;5.798;2023-06-26T00:08:10;5.87;;;5.27;;
14965;SDS011;7577;45.226;5.798;2023-06-26T00:10:39;5.37;;;4.87;;
14965;SDS011;7577;45.226;5.798;2023-06-26T00:13:07;5.50;;;4.93;;
14965;SDS011;7577;45.226;5.798;2023-06-26T00:15:35;5.40;;;4.90;;
14965;SDS011;7577;45.226;5.798;2023-06-26T00:18:03;6.10;;;5.60;;
14965;SDS011;7577;45.226;5.798;2023-06-26T00:20:31;6.33;;;5.73;;
14965;SDS011;7577;45.226;5.798;2023-06-26T00:23:01;5.30;;;4.90;;
14965;SDS011;7577;45.226;5.798;2023-06-26T00:25:31;6.20;;;5.63;;
14965;SDS011;7577;45.226;5.798;2023-06-26T00:27:59;5.70;;;5.20;;
14965;SDS011;7577;45.226;5.798;2023-06-26T00:30:29;5.67;;;5.17;;
14965;SDS011;7577;45.226;5.798;2023-06-26T00:32:57;5.63;;;5.13;;
14965;SDS011;7577;45.226;5.798;2023-06-26T00:35:25;5.57;;;5.07;;
14965;SDS011;7577;45.226;5.798;2023-06-26T00:37:53;5.70;;;5.20;;
14965;SDS011;7577;45.226;5.798;2023-06-26T00:40:22;5.67;;;5.17;;
14965;SDS011;7577;45.226;5.798;2023-06-26T00:42:50;5.90;;;5.40;;
14965;SDS011;7577;45.226;5.798;2023-06-26T00:45:18;5.90;;;5.40;;
14965;SDS011;7577;45.226;5.798;2023-06-26T00:47:47;5.70;;;5.20;;
14965;SDS011;7577;45.226;5.798;2023-06-26T00:50:15;5.93;;;5.30;;
14965;SDS011;7577;45.226;5.798;2023-06-26T00:52:44;5.13;;;4.63;;
14965;SDS011;7577;45.226;5.798;2023-06-26T00:55:13;5.20;;;4.70;;
14965;SDS011;7577;45.226;5.798;2023-06-26T00:57:41;5.57;;;5.07;;
14965;SDS011;7577;45.226;5.798;2023-06-26T01:00:13;5.73;;;5.23;;
14965;SDS011;7577;45.226;5.798;2023-06-26T01:02:41;5.70;;;5.07;;
14965;SDS011;7577;45.226;5.798;2023-06-26T01:05:10;5.60;;;5.10;;
14965;SDS011;7577;45.226;5.798;2023-06-26T01:07:39;5.73;;;5.23;;
14965;SDS011;7577;45.226;5.798;2023-06-26T01:10:08;5.90;;;5.30;;
14965;SDS011;7577;45.226;5.798;2023-06-26T01:12:38;5.70;;;5.20;;
14965;SDS011;7577;45.226;5.798;2023-06-26T01:15:08;6.17;;;5.53;;
14965;SDS011;7577;45.226;5.798;2023-06-26T01:17:37;5.70;;;5.20;;
14965;SDS011;7577;45.226;5.798;2023-06-26T01:20:06;6.23;;;5.40;;
14965;SDS011;7577;45.226;5.798;2023-06-26T01:22:37;5.73;;;5.23;;
14965;SDS011;7577;45.226;5.798;2023-06-26T01:25:10;5.77;;;5.27;;
14965;SDS011;7577;45.226;5.798;2023-06-26T01:27:38;5.60;;;5.10;;
14965;SDS011;7577;45.226;5.798;2023-06-26T01:30:10;5.50;;;5.00;;
14965;SDS011;7577;45.226;5.798;2023-06-26T01:32:39;5.30;;;4.80;;
14965;SDS011;7577;45.226;5.798;2023-06-26T01:35:08;6.03;;;5.43;;
14965;SDS011;7577;45.226;5.798;2023-06-26T01:37:37;5.80;;;5.30;;
14965;SDS011;7577;45.226;5.798;2023-06-26T01:40:06;5.77;;;5.13;;
14965;SDS011;7577;45.226;5.798;2023-06-26T01:42:35;6.20;;;5.40;;
14965;SDS011;7577;45.226;5.798;2023-06-26T01:45:05;6.13;;;5.53;;
14965;SDS011;7577;45.226;5.798;2023-06-26T01:47:33;5.77;;;5.27;;
14965;SDS011;7577;45.226;5.798;2023-06-26T01:50:05;5.83;;;5.30;;
14965;SDS011;7577;45.226;5.798;2023-06-26T01:52:35;5.67;;;5.17;;
14965;SDS011;7577;45.226;5.798;2023-06-26T01:55:05;5.73;;;5.23;;
14965;SDS011;7577;45.226;5.798;2023-06-26T01:57:33;5.97;;;5.47;;
14965;SDS011;7577;45.226;5.798;2023-06-26T02:00:03;6.10;;;5.50;;
14965;SDS011;7577;45.226;5.798;2023-06-26T02:02:33;5.53;;;5.03;;
14965;SDS011;7577;45.226;5.798;2023-06-26T02:05:02;6.67;;;6.07;;
14965;SDS011;7577;45.226;5.798;2023-06-26T02:07:31;5.87;;;5.30;;
14965;SDS011;7577;45.226;5.798;2023-06-26T02:09:59;5.57;;;5.07;;
14965;SDS011;7577;45.226;5.798;2023-06-26T02:12:27;5.90;;;5.40;;
14965;SDS011;7577;45.226;5.798;2023-06-26T02:14:55;5.87;;;5.37;;
14965;SDS011;7577;45.226;5.798;2023-06-26T02:17:23;6.27;;;5.67;;
14965;SDS011;7577;45.226;5.798;2023-06-26T02:19:52;5.93;;;5.27;;
14965;SDS011;7577;45.226;5.798;2023-06-26T02:22:20;6.10;;;5.60;;
14965;SDS011;7577;45.226;5.798;2023-06-26T02:24:48;5.70;;;5.20;;
14965;SDS011;7577;45.226;5.798;2023-06-26T02:27:16;5.40;;;4.90;;
14965;SDS011;7577;45.226;5.798;2023-06-26T02:29:44;5.90;;;5.40;;
14965;SDS011;7577;45.226;5.798;2023-06-26T02:32:12;6.13;;;5.63;;
14965;SDS011;7577;45.226;5.798;2023-06-26T02:34:41;6.00;;;5.50;;
14965;SDS011;7577;45.226;5.798;2023-06-26T02:37:09;5.80;;;5.30;;
14965;SDS011;7577;45.226;5.798;2023-06-26T02:39:38;5.93;;;5.43;;
14965;SDS011;7577;45.226;5.798;2023-06-26T02:42:06;5.60;;;5.10;;
14965;SDS011;7577;45.226;5.798;2023-06-26T02:44:35;5.97;;;5.40;;
14965;SDS011;7577;45.226;5.798;2023-06-26T02:47:03;5.80;;;5.20;;
14965;SDS011;7577;45.226;5.798;2023-06-26T02:49:32;5.97;;;5.40;;
14965;SDS011;7577;45.226;5.798;2023-06-26T02:52:00;6.00;;;5.40;;
14965;SDS011;7577;45.226;5.798;2023-06-26T02:54:28;5.87;;;5.37;;
14965;SDS011;7577;45.226;5.798;2023-06-26T02:56:56;6.07;;;5.57;;
14965;SDS011;7577;45.226;5.798;2023-06-26T02:59:26;5.87;;;5.37;;
14965;SDS011;7577;45.226;5.798;2023-06-26T03:01:55;6.03;;;5.43;;
14965;SDS011;7577;45.226;5.798;2023-06-26T03:04:23;6.20;;;5.70;;
14965;SDS011;7577;45.226;5.798;2023-06-26T03:06:51;7.10;;;5.87;;
14965;SDS011;7577;45.226;5.798;2023-06-26T03:09:19;5.80;;;5.20;;
14965;SDS011;7577;45.226;5.798;2023-06-26T03:11:47;6.47;;;5.87;;
14965;SDS011;7577;45.226;5.798;2023-06-26T03:14:15;6.30;;;5.80;;
14965;SDS011;7577;45.226;5.798;2023-06-26T03:16:44;6.27;;;5.67;;
14965;SDS011;7577;45.226;5.798;2023-06-26T03:19:12;6.20;;;5.60;;
14965;SDS011;7577;45.226;5.798;2023-06-26T03:21:41;6.30;;;5.70;;
14965;SDS011;7577;45.226;5.798;2023-06-26T03:24:09;6.67;;;5.80;;
14965;SDS011;7577;45.226;5.798;2023-06-26T03:26:38;5.60;;;5.10;;
14965;SDS011;7577;45.226;5.798;2023-06-26T03:29:06;6.27;;;5.70;;
14965;SDS011;7577;45.226;5.798;2023-06-26T03:31:34;6.00;;;5.50;;
14965;SDS011;7577;45.226;5.798;2023-06-26T03:34:02;5.80;;;5.30;;
14965;SDS011;7577;45.226;5.798;2023-06-26T03:36:30;5.97;;;5.47;;
14965;SDS011;7577;45.226;5.798;2023-06-26T03:38:58;6.57;;;5.50;;
14965;SDS011;7577;45.226;5.798;2023-06-26T03:41:28;6.10;;;5.50;;
14965;SDS011;7577;45.226;5.798;2023-06-26T03:43:56;6.27;;;5.67;;
14965;SDS011;7577;45.226;5.798;2023-06-26T03:46:24;5.83;;;5.30;;
14965;SDS011;7577;45.226;5.798;2023-06-26T03:48:52;6.10;;;5.60;;
14965;SDS011;7577;45.226;5.798;2023-06-26T03:51:20;5.67;;;5.17;;
14965;SDS011;7577;45.226;5.798;2023-06-26T03:53:49;6.37;;;5.77;;
14965;SDS011;7577;45.226;5.798;2023-06-26T03:56:17;6.10;;;5.57;;
14965;SDS011;7577;45.226;5.798;2023-06-26T03:58:45;6.13;;;5.53;;
14965;SDS011;7577;45.226;5.798;2023-06-26T04:01:13;6.20;;;5.70;;
14965;SDS011;7577;45.226;5.798;2023-06-26T04:03:41;6.27;;;5.67;;
14965;SDS011;7577;45.226;5.798;2023-06-26T04:06:10;6.30;;;5.70;;
14965;SDS011;7577;45.226;5.798;2023-06-26T04:08:38;6.37;;;5.87;;
14965;SDS011;7577;45.226;5.798;2023-06-26T04:11:06;6.60;;;6.00;;
14965;SDS011;7577;45.226;5.798;2023-06-26T04:13:34;6.20;;;5.63;;
14965;SDS011;7577;45.226;5.798;2023-06-26T04:16:03;5.93;;;5.43;;
14965;SDS011;7577;45.226;5.798;2023-06-26T04:18:32;6.03;;;5.53;;
14965;SDS011;7577;45.226;5.798;2023-06-26T04:21:08;6.37;;;5.77;;
14965;SDS011;7577;45.226;5.798;2023-06-26T04:23:38;6.53;;;5.93;;
14965;SDS011;7577;45.226;5.798;2023-06-26T04:26:06;6.37;;;5.80;;
14965;SDS011;7577;45.226;5.798;2023-06-26T04:28:35;6.17;;;5.60;;
14965;SDS011;7577;45.226;5.798;2023-06-26T04:31:04;6.00;;;5.50;;
14965;SDS011;7577;45.226;5.798;2023-06-26T04:33:32;6.00;;;5.50;;
14965;SDS011;7577;45.226;5.798;2023-06-26T04:36:02;6.03;;;5.53;;
14965;SDS011;7577;45.226;5.798;2023-06-26T04:38:31;6.70;;;5.77;;
14965;SDS011;7577;45.226;5.798;2023-06-26T04:41:00;6.47;;;5.93;;
14965;SDS011;7577;45.226;5.798;2023-06-26T04:43:29;6.50;;;5.90;;
14965;SDS011;7577;45.226;5.798;2023-06-26T04:45:58;7.40;;;6.70;;
14965;SDS011;7577;45.226;5.798;2023-06-26T04:48:26;7.30;;;6.60;;
14965;SDS011;7577;45.226;5.798;2023-06-26T04:50:54;7.83;;;7.07;;
14965;SDS011;7577;45.226;5.798;2023-06-26T04:53:23;8.47;;;7.07;;
14965;SDS011;7577;45.226;5.798;2023-06-26T04:55:51;7.77;;;7.07;;
14965;SDS011;7577;45.226;5.798;2023-06-26T04:58:20;9.33;;;6.50;;
14965;SDS011;7577;45.226;5.798;2023-06-26T05:00:48;7.37;;;6.67;;
14965;SDS011;7577;45.226;5.798;2023-06-26T05:03:16;8.53;;;7.73;;
14965;SDS011;7577;45.226;5.798;2023-06-26T05:05:45;8.00;;;7.20;;
14965;SDS011;7577;45.226;5.798;2023-06-26T05:08:14;7.97;;;7.07;;
14965;SDS011;7577;45.226;5.798;2023-06-26T05:10:43;8.13;;;7.33;;
14965;SDS011;7577;45.226;5.798;2023-06-26T05:13:11;7.90;;;7.20;;
14965;SDS011;7577;45.226;5.798;2023-06-26T05:15:42;8.53;;;7.60;;
14965;SDS011;7577;45.226;5.798;2023-06-26T05:18:10;8.67;;;7.00;;
14965;SDS011;7577;45.226;5.798;2023-06-26T05:20:39;8.60;;;7.73;;
14965;SDS011;7577;45.226;5.798;2023-06-26T05:23:08;9.07;;;7.90;;
14965;SDS011;7577;45.226;5.798;2023-06-26T05:25:38;7.60;;;6.90;;
14965;SDS011;7577;45.226;5.798;2023-06-26T05:28:09;8.80;;;7.90;;
14965;SDS011;7577;45.226;5.798;2023-06-26T05:30:39;8.80;;;7.90;;
14965;SDS011;7577;45.226;5.798;2023-06-26T05:33:07;8.70;;;7.80;;
14965;SDS011;7577;45.226;5.798;2023-06-26T05:35:37;8.60;;;7.80;;
14965;SDS011;7577;45.226;5.798;2023-06-26T05:38:05;8.70;;;7.57;;
14965;SDS011;7577;45.226;5.798;2023-06-26T05:40:35;8.50;;;7.63;;
14965;SDS011;7577;45.226;5.798;2023-06-26T05:43:04;7.93;;;7.13;;
14965;SDS011;7577;45.226;5.798;2023-06-26T05:45:32;8.40;;;7.60;;
14965;SDS011;7577;45.226;5.798;2023-06-26T05:48:00;8.87;;;7.97;;
14965;SDS011;7577;45.226;5.798;2023-06-26T05:50:29;8.90;;;8.10;;
14965;SDS011;7577;45.226;5.798;2023-06-26T05:52:58;7.87;;;7.17;;
14965;SDS011;7577;45.226;5.798;2023-06-26T05:55:28;8.43;;;7.23;;
14965;SDS011;7577;45.226;5.798;2023-06-26T05:57:57;8.57;;;7.67;;
14965;SDS011;7577;45.226;5.798;2023-06-26T06:00:27;9.47;;;7.27;;
14965;SDS011;7577;45.226;5.798;2023-06-26T06:02:55;8.23;;;7.20;;
14965;SDS011;7577;45.226;5.798;2023-06-26T06:05:23;10.23;;;8.57;;
14965;SDS011;7577;45.226;5.798;2023-06-26T06:07:52;11.07;;;8.53;;
14965;SDS011;7577;45.226;5.798;2023-06-26T06:10:20;8.63;;;7.77;;
14965;SDS011;7577;45.226;5.798;2023-06-26T06:12:48;9.20;;;8.10;;
14965;SDS011;7577;45.226;5.798;2023-06-26T06:15:16;9.40;;;8.50;;
14965;SDS011;7577;45.226;5.798;2023-06-26T06:17:45;9.50;;;8.23;;
14965;SDS011;7577;45.226;5.798;2023-06-26T06:20:13;11.70;;;8.53;;
14965;SDS011;7577;45.226;5.798;2023-06-26T06:22:41;9.13;;;7.83;;
14965;SDS011;7577;45.226;5.798;2023-06-26T06:25:10;8.77;;;7.50;;
14965;SDS011;7577;45.226;5.798;2023-06-26T06:27:38;8.87;;;7.63;;
14965;SDS011;7577;45.226;5.798;2023-06-26T06:30:08;10.80;;;7.53;;
14965;SDS011;7577;45.226;5.798;2023-06-26T06:32:36;10.30;;;8.10;;
14965;SDS011;7577;45.226;5.798;2023-06-26T06:35:05;16.97;;;7.70;;
14965;SDS011;7577;45.226;5.798;2023-06-26T06:37:37;11.03;;;7.70;;
14965;SDS011;7577;45.226;5.798;2023-06-26T06:40:05;9.97;;;7.93;;
14965;SDS011;7577;45.226;5.798;2023-06-26T06:42:35;12.20;;;7.83;;
14965;SDS011;7577;45.226;5.798;2023-06-26T06:45:04;11.13;;;7.33;;
14965;SDS011;7577;45.226;5.798;2023-06-26T06:47:32;8.17;;;7.23;;
14965;SDS011;7577;45.226;5.798;2023-06-26T06:50:00;9.10;;;7.23;;
14965;SDS011;7577;45.226;5.798;2023-06-26T06:52:31;9.57;;;6.73;;
14965;SDS011;7577;45.226;5.798;2023-06-26T06:54:59;13.53;;;7.90;;
14965;SDS011;7577;45.226;5.798;2023-06-26T06:57:28;8.43;;;7.00;;
14965;SDS011;7577;45.226;5.798;2023-06-26T06:59:57;8.57;;;7.67;;
14965;SDS011;7577;45.226;5.798;2023-06-26T07:02:25;8.77;;;6.93;;
14965;SDS011;7577;45.226;5.798;2023-06-26T07:04:53;7.73;;;6.67;;
14965;SDS011;7577;45.226;5.798;2023-06-26T07:07:21;7.80;;;7.00;;
14965;SDS011;7577;45.226;5.798;2023-06-26T07:09:50;9.27;;;6.77;;
14965;SDS011;7577;45.226;5.798;2023-06-26T07:12:18;7.87;;;7.07;;
14965;SDS011;7577;45.226;5.798;2023-06-26T07:14:46;7.30;;;6.60;;
14965;SDS011;7577;45.226;5.798;2023-06-26T07:17:14;10.23;;;7.10;;
14965;SDS011;7577;45.226;5.798;2023-06-26T07:19:42;8.73;;;7.57;;
14965;SDS011;7577;45.226;5.798;2023-06-26T07:22:10;8.47;;;7.00;;
14965;SDS011;7577;45.226;5.798;2023-06-26T07:24:39;7.07;;;6.37;;
14965;SDS011;7577;45.226;5.798;2023-06-26T07:27:07;8.07;;;6.83;;
14965;SDS011;7577;45.226;5.798;2023-06-26T07:29:35;7.87;;;6.80;;
14965;SDS011;7577;45.226;5.798;2023-06-26T07:32:04;6.93;;;6.23;;
14965;SDS011;7577;45.226;5.798;2023-06-26T07:34:32;7.30;;;6.60;;
14965;SDS011;7577;45.226;5.798;2023-06-26T07:37:01;7.20;;;6.57;;
14965;SDS011;7577;45.226;5.798;2023-06-26T07:39:30;7.33;;;6.63;;
14965;SDS011;7577;45.226;5.798;2023-06-26T07:41:58;7.87;;;6.40;;
14965;SDS011;7577;45.226;5.798;2023-06-26T07:44:26;7.17;;;6.47;;
14965;SDS011;7577;45.226;5.798;2023-06-26T07:46:55;7.07;;;6.37;;
14965;SDS011;7577;45.226;5.798;2023-06-26T07:49:23;6.43;;;5.83;;
14965;SDS011;7577;45.226;5.798;2023-06-26T07:51:51;6.83;;;6.17;;
14965;SDS011;7577;45.226;5.798;2023-06-26T07:54:19;6.80;;;6.10;;
14965;SDS011;7577;45.226;5.798;2023-06-26T07:56:54;7.10;;;6.47;;
14965;SDS011;7577;45.226;5.798;2023-06-26T07:59:23;7.10;;;6.50;;
14965;SDS011;7577;45.226;5.798;2023-06-26T08:01:52;7.13;;;6.50;;
14965;SDS011;7577;45.226;5.798;2023-06-26T08:04:21;6.97;;;6.27;;
14965;SDS011;7577;45.226;5.798;2023-06-26T08:06:51;6.67;;;5.97;;
14965;SDS011;7577;45.226;5.798;2023-06-26T08:09:20;6.67;;;6.07;;
14965;SDS011;7577;45.226;5.798;2023-06-26T08:11:49;6.60;;;6.00;;
14965;SDS011;7577;45.226;5.798;2023-06-26T08:14:17;6.40;;;5.90;;
14965;SDS011;7577;45.226;5.798;2023-06-26T08:16:46;6.63;;;6.00;;
14965;SDS011;7577;45.226;5.798;2023-06-26T08:19:14;6.73;;;6.10;;
14965;SDS011;7577;45.226;5.798;2023-06-26T08:21:43;6.70;;;6.10;;
14965;SDS011;7577;45.226;5.798;2023-06-26T08:24:11;6.43;;;5.93;;
14965;SDS011;7577;45.226;5.798;2023-06-26T08:26:40;6.63;;;5.93;;
14965;SDS011;7577;45.226;5.798;2023-06-26T08:29:08;6.97;;;6.37;;
14965;SDS011;7577;45.226;5.798;2023-06-26T08:31:37;6.80;;;6.20;;
14965;SDS011;7577;45.226;5.798;2023-06-26T08:34:06;6.73;;;6.13;;
14965;SDS011;7577;45.226;5.798;2023-06-26T08:36:34;7.10;;;6.40;;
14965;SDS011;7577;45.226;5.798;2023-06-26T08:39:03;6.63;;;6.03;;
14965;SDS011;7577;45.226;5.798;2023-06-26T08:41:32;7.03;;;6.33;;
14965;SDS011;7577;45.226;5.798;2023-06-26T08:44:00;6.90;;;6.20;;
14965;SDS011;7577;45.226;5.798;2023-06-26T08:46:29;7.13;;;6.43;;
14965;SDS011;7577;45.226;5.798;2023-06-26T08:49:00;6.63;;;6.03;;
14965;SDS011;7577;45.226;5.798;2023-06-26T08:51:29;6.37;;;5.87;;
14965;SDS011;7577;45.226;5.798;2023-06-26T08:53:59;6.70;;;6.10;;
14965;SDS011;7577;45.226;5.798;2023-06-26T08:56:28;6.57;;;5.87;;
14965;SDS011;7577;45.226;5.798;2023-06-26T08:58:57;7.17;;;6.57;;
14965;SDS011;7577;45.226;5.798;2023-06-26T09:01:25;6.60;;;5.90;;
14965;SDS011;7577;45.226;5.798;2023-06-26T09:03:54;6.33;;;5.73;;
14965;SDS011;7577;45.226;5.798;2023-06-26T09:06:22;6.27;;;5.67;;
14965;SDS011;7577;45.226;5.798;2023-06-26T09:08:50;6.10;;;5.60;;
14965;SDS011;7577;45.226;5.798;2023-06-26T09:11:18;6.37;;;5.77;;
14965;SDS011;7577;45.226;5.798;2023-06-26T09:13:46;6.60;;;6.00;;
14965;SDS011;7577;45.226;5.798;2023-06-26T09:16:15;7.03;;;6.33;;
14965;SDS011;7577;45.226;5.798;2023-06-26T09:18:44;7.40;;;6.27;;
14965;SDS011;7577;45.226;5.798;2023-06-26T09:21:13;6.13;;;5.57;;
14965;SDS011;7577;45.226;5.798;2023-06-26T09:23:42;6.73;;;6.13;;
14965;SDS011;7577;45.226;5.798;2023-06-26T09:26:11;6.33;;;5.70;;
14965;SDS011;7577;45.226;5.798;2023-06-26T09:28:41;7.17;;;6.50;;
14965;SDS011;7577;45.226;5.798;2023-06-26T09:31:09;6.50;;;5.90;;
14965;SDS011;7577;45.226;5.798;2023-06-26T09:33:38;6.63;;;6.00;;
14965;SDS011;7577;45.226;5.798;2023-06-26T09:36:07;6.40;;;5.80;;
14965;SDS011;7577;45.226;5.798;2023-06-26T09:38:36;7.07;;;6.37;;
14965;SDS011;7577;45.226;5.798;2023-06-26T09:41:04;6.43;;;5.87;;
14965;SDS011;7577;45.226;5.798;2023-06-26T09:43:33;6.70;;;6.10;;
14965;SDS011;7577;45.226;5.798;2023-06-26T09:46:01;6.53;;;5.93;;
14965;SDS011;7577;45.226;5.798;2023-06-26T09:48:29;6.77;;;6.17;;
14965;SDS011;7577;45.226;5.798;2023-06-26T09:50:58;6.50;;;5.70;;
14965;SDS011;7577;45.226;5.798;2023-06-26T09:53:28;6.50;;;5.90;;
14965;SDS011;7577;45.226;5.798;2023-06-26T09:55:56;6.13;;;5.63;;
14965;SDS011;7577;45.226;5.798;2023-06-26T09:58:24;6.27;;;5.67;;
14965;SDS011;7577;45.226;5.798;2023-06-26T10:00:53;5.60;;;5.10;;
14965;SDS011;7577;45.226;5.798;2023-06-26T10:03:21;6.40;;;5.80;;
14965;SDS011;7577;45.226;5.798;2023-06-26T10:05:49;6.40;;;5.80;;
14965;SDS011;7577;45.226;5.798;2023-06-26T10:08:18;6.40;;;5.80;;
14965;SDS011;7577;45.226;5.798;2023-06-26T10:10:46;6.10;;;5.60;;
14965;SDS011;7577;45.226;5.798;2023-06-26T10:13:18;6.30;;;5.70;;
14965;SDS011;7577;45.226;5.798;2023-06-26T10:15:45;6.27;;;5.70;;
14965;SDS011;7577;45.226;5.798;2023-06-26T10:18:14;6.30;;;5.70;;
14965;SDS011;7577;45.226;5.798;2023-06-26T10:20:43;6.60;;;6.00;;
14965;SDS011;7577;45.226;5.798;2023-06-26T10:23:13;6.87;;;5.60;;
14965;SDS011;7577;45.226;5.798;2023-06-26T10:25:43;6.53;;;5.87;;
14965;SDS011;7577;45.226;5.798;2023-06-26T10:28:12;6.47;;;5.87;;
14965;SDS011;7577;45.226;5.798;2023-06-26T10:30:41;6.20;;;5.60;;
14965;SDS011;7577;45.226;5.798;2023-06-26T10:33:11;7.07;;;6.47;;
14965;SDS011;7577;45.226;5.798;2023-06-26T10:35:43;6.83;;;5.67;;
14965;SDS011;7577;45.226;5.798;2023-06-26T10:38:13;5.87;;;5.37;;
14965;SDS011;7577;45.226;5.798;2023-06-26T10:40:42;6.07;;;5.57;;
14965;SDS011;7577;45.226;5.798;2023-06-26T10:43:12;5.67;;;5.17;;
14965;SDS011;7577;45.226;5.798;2023-06-26T10:45:44;6.77;;;6.10;;
14965;SDS011;7577;45.226;5.798;2023-06-26T10:48:14;6.20;;;5.70;;
14965;SDS011;7577;45.226;5.798;2023-06-26T10:50:43;7.03;;;6.33;;
14965;SDS011;7577;45.226;5.798;2023-06-26T10:53:22;6.53;;;5.87;;
14965;SDS011;7577;45.226;5.798;2023-06-26T10:55:51;6.20;;;5.60;;
14965;SDS011;7577;45.226;5.798;2023-06-26T10:58:28;6.53;;;5.93;;
14965;SDS011;7577;45.226;5.798;2023-06-26T11:01:26;6.27;;;5.67;;
14965;SDS011;7577;45.226;5.798;2023-06-26T11:04:03;7.20;;;6.47;;
14965;SDS011;7577;45.226;5.798;2023-06-26T11:06:31;6.23;;;5.63;;
14965;SDS011;7577;45.226;5.798;2023-06-26T11:09:05;6.23;;;5.63;;
14965;SDS011;7577;45.226;5.798;2023-06-26T11:14:17;6.73;;;6.13;;
14965;SDS011;7577;45.226;5.798;2023-06-26T11:16:46;6.93;;;6.33;;
14965;SDS011;7577;45.226;5.798;2023-06-26T11:19:16;6.30;;;5.80;;
14965;SDS011;7577;45.226;5.798;2023-06-26T11:21:45;6.40;;;5.80;;
14965;SDS011;7577;45.226;5.798;2023-06-26T11:24:13;7.43;;;6.03;;
14965;SDS011;7577;45.226;5.798;2023-06-26T11:26:42;6.70;;;6.10;;
14965;SDS011;7577;45.226;5.798;2023-06-26T11:29:11;6.37;;;5.87;;
14965;SDS011;7577;45.226;5.798;2023-06-26T11:31:40;5.63;;;5.23;;
14965;SDS011;7577;45.226;5.798;2023-06-26T11:34:09;6.33;;;5.83;;
14965;SDS011;7577;45.226;5.798;2023-06-26T11:36:39;5.90;;;5.40;;
14965;SDS011;7577;45.226;5.798;2023-06-26T11:39:09;6.30;;;5.70;;
14965;SDS011;7577;45.226;5.798;2023-06-26T11:41:38;6.57;;;5.97;;
14965;SDS011;7577;45.226;5.798;2023-06-26T11:44:07;7.20;;;6.27;;
14965;SDS011;7577;45.226;5.798;2023-06-26T11:46:36;6.73;;;5.90;;
14965;SDS011;7577;45.226;5.798;2023-06-26T11:49:04;7.20;;;5.40;;
14965;SDS011;7577;45.226;5.798;2023-06-26T11:51:33;6.50;;;5.90;;
14965;SDS011;7577;45.226;5.798;2023-06-26T11:54:01;6.53;;;5.93;;
14965;SDS011;7577;45.226;5.798;2023-06-26T11:56:31;6.50;;;5.90;;
14965;SDS011;7577;45.226;5.798;2023-06-26T11:58:59;6.17;;;5.60;;
14965;SDS011;7577;45.226;5.798;2023-06-26T12:01:32;6.20;;;5.60;;
14965;SDS011;7577;45.226;5.798;2023-06-26T12:04:03;6.63;;;5.83;;
14965;SDS011;7577;45.226;5.798;2023-06-26T12:06:32;7.67;;;5.73;;
14965;SDS011;7577;45.226;5.798;2023-06-26T12:09:02;6.20;;;5.60;;
14965;SDS011;7577;45.226;5.798;2023-06-26T12:11:32;6.53;;;5.97;;
14965;SDS011;7577;45.226;5.798;2023-06-26T12:14:01;6.17;;;5.67;;
14965;SDS011;7577;45.226;5.798;2023-06-26T12:16:30;5.93;;;5.43;;
14965;SDS011;7577;45.226;5.798;2023-06-26T12:18:59;6.13;;;5.53;;
14965;SDS011;7577;45.226;5.798;2023-06-26T12:21:33;6.03;;;5.53;;
14965;SDS011;7577;45.226;5.798;2023-06-26T12:24:02;6.23;;;5.50;;
14965;SDS011;7577;45.226;5.798;2023-06-26T12:26:30;6.20;;;5.60;;
14965;SDS011;7577;45.226;5.798;2023-06-26T12:29:02;6.23;;;5.73;;
14965;SDS011;7577;45.226;5.798;2023-06-26T12:31:31;6.33;;;5.73;;
14965;SDS011;7577;45.226;5.798;2023-06-26T12:34:00;6.40;;;5.80;;
14965;SDS011;7577;45.226;5.798;2023-06-26T12:36:29;6.70;;;6.10;;
14965;SDS011;7577;45.226;5.798;2023-06-26T12:39:00;5.90;;;5.40;;
14965;SDS011;7577;45.226;5.798;2023-06-26T12:41:27;6.33;;;5.70;;
14965;SDS011;7577;45.226;5.798;2023-06-26T12:43:56;6.13;;;5.57;;
14965;SDS011;7577;45.226;5.798;2023-06-26T12:46:33;6.13;;;5.53;;
14965;SDS011;7577;45.226;5.798;2023-06-26T12:49:02;5.80;;;5.30;;
14965;SDS011;7577;45.226;5.798;2023-06-26T12:51:30;6.73;;;5.97;;
14965;SDS011;7577;45.226;5.798;2023-06-26T12:53:59;6.70;;;6.10;;
14965;SDS011;7577;45.226;5.798;2023-06-26T12:56:27;5.80;;;5.20;;
14965;SDS011;7577;45.226;5.798;2023-06-26T12:58:55;6.23;;;5.63;;
14965;SDS011;7577;45.226;5.798;2023-06-26T13:01:24;6.23;;;5.73;;
14965;SDS011;7577;45.226;5.798;2023-06-26T13:03:52;5.80;;;5.30;;
14965;SDS011;7577;45.226;5.798;2023-06-26T13:06:20;6.90;;;5.73;;
14965;SDS011;7577;45.226;5.798;2023-06-26T13:08:48;6.13;;;5.53;;
14965;SDS011;7577;45.226;5.798;2023-06-26T13:11:17;5.90;;;5.23;;
14965;SDS011;7577;45.226;5.798;2023-06-26T13:13:45;6.40;;;5.80;;
14965;SDS011;7577;45.226;5.798;2023-06-26T13:16:13;5.87;;;5.37;;
14965;SDS011;7577;45.226;5.798;2023-06-26T13:18:42;6.20;;;5.60;;
14965;SDS011;7577;45.226;5.798;2023-06-26T13:21:10;7.73;;;5.80;;
14965;SDS011;7577;45.226;5.798;2023-06-26T13:23:38;6.97;;;5.80;;
14965;SDS011;7577;45.226;5.798;2023-06-26T13:26:07;6.03;;;5.40;;
14965;SDS011;7577;45.226;5.798;2023-06-26T13:28:35;6.30;;;5.70;;
14965;SDS011;7577;45.226;5.798;2023-06-26T13:31:04;6.03;;;5.43;;
14965;SDS011;7577;45.226;5.798;2023-06-26T13:33:32;5.97;;;5.37;;
14965;SDS011;7577;45.226;5.798;2023-06-26T13:36:00;6.97;;;5.93;;
14965;SDS011;7577;45.226;5.798;2023-06-26T13:38:32;7.67;;;5.17;;
14965;SDS011;7577;45.226;5.798;2023-06-26T13:41:01;6.33;;;5.70;;
14965;SDS011;7577;45.226;5.798;2023-06-26T13:43:29;5.93;;;5.43;;
14965;SDS011;7577;45.226;5.798;2023-06-26T13:45:57;6.37;;;5.77;;
14965;SDS011;7577;45.226;5.798;2023-06-26T13:48:25;6.00;;;5.47;;
14965;SDS011;7577;45.226;5.798;2023-06-26T13:50:53;6.63;;;6.03;;
14965;SDS011;7577;45.226;5.798;2023-06-26T13:53:23;6.10;;;5.60;;
14965;SDS011;7577;45.226;5.798;2023-06-26T13:55:51;6.13;;;5.53;;
14965;SDS011;7577;45.226;5.798;2023-06-26T13:58:19;7.00;;;6.30;;
14965;SDS011;7577;45.226;5.798;2023-06-26T14:00:49;6.70;;;6.10;;
14965;SDS011;7577;45.226;5.798;2023-06-26T14:03:17;5.93;;;5.33;;
14965;SDS011;7577;45.226;5.798;2023-06-26T14:05:46;7.30;;;5.53;;
14965;SDS011;7577;45.226;5.798;2023-06-26T14:08:14;5.80;;;5.30;;
14965;SDS011;7577;45.226;5.798;2023-06-26T14:10:42;5.77;;;5.27;;
14965;SDS011;7577;45.226;5.798;2023-06-26T14:13:10;6.50;;;5.80;;
14965;SDS011;7577;45.226;5.798;2023-06-26T14:15:40;6.40;;;5.80;;
14965;SDS011;7577;45.226;5.798;2023-06-26T14:18:09;7.90;;;5.60;;
14965;SDS011;7577;45.226;5.798;2023-06-26T14:20:37;6.47;;;5.80;;
14965;SDS011;7577;45.226;5.798;2023-06-26T14:23:06;6.43;;;5.83;;
14965;SDS011;7577;45.226;5.798;2023-06-26T14:25:35;6.17;;;5.57;;
14965;SDS011;7577;45.226;5.798;2023-06-26T14:28:03;6.17;;;5.57;;
14965;SDS011;7577;45.226;5.798;2023-06-26T14:30:32;5.83;;;5.23;;
14965;SDS011;7577;45.226;5.798;2023-06-26T14:33:00;5.80;;;5.27;;
14965;SDS011;7577;45.226;5.798;2023-06-26T14:35:28;5.70;;;5.07;;
14965;SDS011;7577;45.226;5.798;2023-06-26T14:37:57;5.80;;;5.30;;
14965;SDS011;7577;45.226;5.798;2023-06-26T14:40:25;5.87;;;5.23;;
14965;SDS011;7577;45.226;5.798;2023-06-26T14:42:54;6.07;;;5.47;;
14965;SDS011;7577;45.226;5.798;2023-06-26T14:45:23;6.10;;;5.50;;
14965;SDS011;7577;45.226;5.798;2023-06-26T14:47:51;6.00;;;5.47;;
14965;SDS011;7577;45.226;5.798;2023-06-26T14:50:19;6.80;;;6.10;;
14965;SDS011;7577;45.226;5.798;2023-06-26T14:52:48;6.97;;;6.20;;
14965;SDS011;7577;45.226;5.798;2023-06-26T14:55:16;6.27;;;5.60;;
14965;SDS011;7577;45.226;5.798;2023-06-26T14:57:44;6.10;;;5.50;;
14965;SDS011;7577;45.226;5.798;2023-06-26T15:00:14;5.70;;;5.20;;
14965;SDS011;7577;45.226;5.798;2023-06-26T15:02:43;5.17;;;4.70;;
14965;SDS011;7577;45.226;5.798;2023-06-26T15:05:11;6.00;;;5.50;;
14965;SDS011;7577;45.226;5.798;2023-06-26T15:07:39;5.97;;;5.47;;
14965;SDS011;7577;45.226;5.798;2023-06-26T15:10:08;5.43;;;4.93;;
14965;SDS011;7577;45.226;5.798;2023-06-26T15:12:37;5.67;;;5.03;;